createdAt,value
2023-03-01T00:03:08.446Z,1021.224
2023-03-01T00:23:07.453Z,1021.251
2023-03-01T00:43:07.234Z,1021.242
2023-03-01T01:03:09.011Z,1021.18
2023-03-01T01:23:07.900Z,1021.055
2023-03-01T01:43:07.594Z,1020.741
2023-03-01T02:03:08.778Z,1020.559
2023-03-01T02:23:07.768Z,1020.572
2023-03-01T02:43:07.567Z,1020.511
2023-03-01T03:03:08.202Z,1020.364
2023-03-01T03:23:08.045Z,1020.112
2023-03-01T03:43:07.894Z,1019.943
2023-03-01T04:03:08.571Z,1019.846
2023-03-01T04:23:07.391Z,1019.899
2023-03-01T04:43:07.521Z,1019.938
2023-03-01T05:03:08.448Z,1019.812
2023-03-01T05:23:07.527Z,1019.914
2023-03-01T05:43:07.560Z,1019.658
2023-03-01T06:03:08.444Z,1019.782
2023-03-01T06:23:09.097Z,1019.9
2023-03-01T06:43:07.979Z,1019.807
2023-03-01T07:03:08.866Z,1019.715
2023-03-01T07:23:07.665Z,1019.596
2023-03-01T07:43:07.548Z,1019.494
2023-03-01T08:03:08.653Z,1019.489
2023-03-01T08:23:07.728Z,1019.506
2023-03-01T08:43:07.683Z,1019.432
2023-03-01T09:03:08.551Z,1019.361
2023-03-01T09:23:07.411Z,1019.197
2023-03-01T09:43:07.457Z,1018.99
2023-03-01T10:03:08.356Z,1018.918
2023-03-01T10:23:07.260Z,1018.852
2023-03-01T10:43:08.152Z,1018.697
2023-03-01T11:03:09.068Z,1018.487
2023-03-01T11:23:08.041Z,1018.433
2023-03-01T11:43:08.620Z,1018.312
2023-03-01T12:03:08.719Z,1018.191
2023-03-01T12:23:21.740Z,1017.943
2023-03-01T12:43:07.684Z,1017.595
2023-03-01T13:03:08.523Z,1017.242
2023-03-01T13:23:07.389Z,1017.143
2023-03-01T13:43:07.509Z,1016.961
2023-03-01T14:03:08.480Z,1016.766
2023-03-01T14:23:07.424Z,1016.615
2023-03-01T14:43:07.362Z,1016.4
2023-03-01T15:03:08.319Z,1016.258
2023-03-01T15:23:07.242Z,1016.08
2023-03-01T15:43:07.171Z,1015.975
2023-03-01T16:03:08.765Z,1015.845
2023-03-01T16:23:07.712Z,1015.891
2023-03-01T16:43:07.610Z,1015.884
2023-03-01T17:03:08.763Z,1015.861
2023-03-01T17:23:07.758Z,1016.123
2023-03-01T17:43:08.004Z,1016.24
2023-03-01T18:03:08.132Z,1016.227
2023-03-01T18:23:07.971Z,1016.414
2023-03-01T18:43:08.069Z,1016.26
2023-03-01T19:03:09.021Z,1016.014
2023-03-01T19:23:08.316Z,1016.003
2023-03-01T19:43:07.243Z,1016.139
2023-03-01T20:03:09.320Z,1016.047
2023-03-01T20:23:07.291Z,1016.026
2023-03-01T20:43:07.383Z,1016.027
2023-03-01T21:03:08.302Z,1016.058
2023-03-01T21:23:07.180Z,1015.992
2023-03-01T21:43:07.407Z,1015.952
2023-03-01T22:03:09.023Z,1015.844
2023-03-01T22:23:07.811Z,1015.723
2023-03-01T22:43:08.058Z,1015.722
2023-03-01T23:03:09.352Z,1015.627
2023-03-01T23:23:07.398Z,1015.422
2023-03-01T23:43:08.087Z,1015.219
